Time;durP1;ratioP1;P1;durP2;ratioP2;P2;SDS_P1;SDS_P2;PMS_P1;PMS_P2;Temp;Humidity;BMP_temperature;BMP_pressure;BME280_temperature;BME280_humidity;BME280_pressure;Samples;Min_cycle;Max_cycle;Signal;HPM_P1;HPM_P2
2021/12/12 00:01:49;;;;;;;39.60;16.58;;;4.40;99.90;;;;;;5095041;28;20032;-44
2021/12/12 00:04:19;;;;;;;33.97;14.50;;;4.40;99.90;;;;;;5096267;28;20024;-43
2021/12/12 00:06:49;;;;;;;31.25;15.18;;;4.40;99.90;;;;;;5095634;28;20020;-43
2021/12/12 00:09:29;;;;;;;39.53;17.00;;;4.40;99.90;;;;;;5095976;28;20417;-43
2021/12/12 00:11:56;;;;;;;39.55;15.18;;;4.30;99.90;;;;;;5088006;28;20122;-43
2021/12/12 00:14:27;;;;;;;39.20;15.52;;;4.40;99.90;;;;;;5095320;28;20111;-44
2021/12/12 00:16:54;;;;;;;31.23;15.85;;;4.40;99.90;;;;;;5096063;28;20020;-43
2021/12/12 00:19:21;;;;;;;39.38;14.43;;;4.40;99.90;;;;;;5093895;28;20509;-43
2021/12/12 00:21:49;;;;;;;35.83;16.02;;;4.40;99.90;;;;;;5075112;28;20103;-43
2021/12/12 00:24:17;;;;;;;29.92;15.27;;;4.40;99.90;;;;;;5075595;28;20467;-43
2021/12/12 00:26:45;;;;;;;40.33;15.35;;;4.40;99.90;;;;;;5074995;28;20077;-43
2021/12/12 00:29:12;;;;;;;34.45;14.55;;;4.40;99.90;;;;;;5075409;28;20032;-43
2021/12/12 00:31:38;;;;;;;38.92;17.05;;;4.40;99.90;;;;;;5075384;28;20024;-44
2021/12/12 00:34:04;;;;;;;36.45;15.48;;;4.50;99.90;;;;;;5074808;28;20085;-43
2021/12/12 00:36:32;;;;;;;35.83;15.60;;;4.50;99.90;;;;;;5075239;28;20020;-44
2021/12/12 00:39:03;;;;;;;28.60;14.20;;;4.50;99.90;;;;;;5075935;28;20029;-42
2021/12/12 00:41:42;;;;;;;38.35;15.10;;;4.40;99.90;;;;;;5094712;28;20036;-43
2021/12/12 00:44:11;;;;;;;32.63;16.13;;;4.40;99.90;;;;;;5095613;28;20024;-43
2021/12/12 00:46:37;;;;;;;28.88;13.38;;;4.40;99.90;;;;;;5095288;28;20408;-44
2021/12/12 00:49:03;;;;;;;43.35;14.27;;;4.40;99.90;;;;;;5093991;28;20020;-43
2021/12/12 00:51:35;;;;;;;45.45;17.20;;;4.50;99.90;;;;;;5074988;28;20092;-43
2021/12/12 00:54:01;;;;;;;43.70;14.35;;;4.40;99.90;;;;;;5075172;28;20020;-43
2021/12/12 00:56:27;;;;;;;33.42;13.95;;;4.50;99.90;;;;;;5074113;28;20470;-43
2021/12/12 00:58:53;;;;;;;30.42;13.80;;;4.50;99.90;;;;;;5075033;28;20114;-43
2021/12/12 01:01:31;;;;;;;34.20;13.73;;;4.50;99.90;;;;;;5092711;28;20510;-43
2021/12/12 01:04:16;;;;;;;48.88;16.08;;;4.50;99.90;;;;;;5094622;28;20048;-42
2021/12/12 01:06:44;;;;;;;34.10;13.98;;;4.50;99.90;;;;;;5094965;28;20016;-44
2021/12/12 01:09:13;;;;;;;36.28;13.82;;;4.50;99.90;;;;;;5093737;28;20031;-43
2021/12/12 01:11:43;;;;;;;40.67;14.93;;;4.50;99.90;;;;;;5074503;28;20073;-44
2021/12/12 01:14:12;;;;;;;38.38;14.00;;;4.60;99.90;;;;;;5074665;28;20021;-43
2021/12/12 01:16:44;;;;;;;41.47;15.68;;;4.50;99.90;;;;;;5074003;28;20032;-44
2021/12/12 01:19:27;;;;;;;33.22;13.77;;;4.50;99.90;;;;;;5076744;28;20103;-43
2021/12/12 01:21:58;;;;;;;29.40;13.40;;;4.60;99.90;;;;;;5094427;28;20032;-44
2021/12/12 01:24:32;;;;;;;36.63;15.82;;;4.60;99.90;;;;;;5094179;28;20085;-45
2021/12/12 01:26:59;;;;;;;34.95;13.32;;;4.60;99.90;;;;;;5094699;28;20031;-43
2021/12/12 01:29:25;;;;;;;37.95;14.77;;;4.60;99.90;;;;;;5089555;28;20032;-43
2021/12/12 01:31:51;;;;;;;30.38;13.13;;;4.60;99.90;;;;;;5073811;28;20464;-43
2021/12/12 01:34:23;;;;;;;33.58;13.48;;;4.60;99.90;;;;;;5074278;28;20019;-42
2021/12/12 01:37:04;;;;;;;35.33;13.63;;;4.60;99.90;;;;;;5073841;28;20016;-44
2021/12/12 01:39:40;;;;;;;32.47;12.13;;;4.60;99.90;;;;;;5081383;28;20055;-44
2021/12/12 01:42:24;;;;;;;39.00;14.15;;;4.60;99.90;;;;;;5094360;28;20024;-44
2021/12/12 01:45:12;;;;;;;28.50;12.70;;;4.60;99.90;;;;;;5093797;28;20028;-43
2021/12/12 01:47:44;;;;;;;;;;;4.60;99.90;;;;;;5094780;28;20020;-42
2021/12/12 01:50:25;;;;;;;26.77;11.93;;;4.60;99.90;;;;;;5080554;28;19962;-43
2021/12/12 01:52:51;;;;;;;27.75;12.63;;;4.60;99.90;;;;;;5073345;28;20035;-45
2021/12/12 01:55:27;;;;;;;27.60;12.70;;;4.60;99.90;;;;;;5073660;28;20029;-42
2021/12/12 01:57:57;;;;;;;30.40;12.05;;;4.70;99.90;;;;;;5073378;28;20564;-44
2021/12/12 02:00:41;;;;;;;31.42;13.30;;;4.70;99.90;;;;;;5074744;28;20120;-44
2021/12/12 02:03:09;;;;;;;28.20;14.40;;;4.70;99.90;;;;;;5073705;28;20463;-44
2021/12/12 02:05:36;;;;;;;28.45;13.38;;;4.70;99.90;;;;;;5073063;28;20103;-44
2021/12/12 02:08:07;;;;;;;31.17;12.82;;;4.70;99.90;;;;;;5073529;28;20021;-44
2021/12/12 02:10:46;;;;;;;36.05;14.13;;;4.70;99.90;;;;;;5089089;28;20487;-44
2021/12/12 02:13:15;;;;;;;32.65;11.95;;;4.70;99.90;;;;;;5092625;28;20020;-43
2021/12/12 02:15:44;;;;;;;32.83;12.00;;;4.70;99.90;;;;;;5093763;28;20024;-43
2021/12/12 02:18:13;;;;;;;26.58;11.30;;;4.70;99.90;;;;;;5093651;28;20016;-43
2021/12/12 02:20:53;;;;;;;32.28;12.55;;;4.70;99.90;;;;;;5076350;28;20029;-44
2021/12/12 02:23:35;;;;;;;27.55;11.68;;;4.70;99.90;;;;;;5074390;28;20042;-44
2021/12/12 02:37:04;;;;;;;23.60;11.05;;;4.80;99.90;;;;;;5093355;28;20035;-44
2021/12/12 02:39:30;;;;;;;28.92;10.77;;;4.70;99.90;;;;;;5086595;28;20158;-44
2021/12/12 02:42:00;;;;;;;29.15;11.10;;;4.80;99.90;;;;;;5072589;28;20521;-43
2021/12/12 02:44:30;;;;;;;21.63;10.15;;;4.80;99.90;;;;;;5072995;28;20119;-43
2021/12/12 02:46:58;;;;;;;22.65;11.00;;;4.80;99.90;;;;;;5073004;28;20027;-43
2021/12/12 02:49:39;;;;;;;32.75;13.20;;;4.80;99.90;;;;;;5077528;28;20047;-43
2021/12/12 02:52:16;;;;;;;16.35;9.27;;;4.80;99.90;;;;;;5093288;28;20030;-43
2021/12/12 02:54:44;;;;;;;26.75;10.85;;;4.80;99.90;;;;;;5092771;28;20038;-44
2021/12/12 02:57:10;;;;;;;21.88;10.05;;;4.80;99.90;;;;;;5092857;28;20056;-42
2021/12/12 02:59:38;;;;;;;21.92;10.23;;;4.90;99.90;;;;;;5086018;28;20028;-43
2021/12/12 03:02:08;;;;;;;27.93;10.13;;;4.90;99.90;;;;;;5072291;28;20024;-44
2021/12/12 03:04:34;;;;;;;17.77;9.95;;;4.80;99.90;;;;;;5072854;28;20279;-43
2021/12/12 03:07:00;;;;;;;23.13;9.98;;;4.90;99.90;;;;;;5072906;28;20056;-43
2021/12/12 03:09:33;;;;;;;21.25;8.85;;;4.90;99.90;;;;;;5076111;28;20078;-44
2021/12/12 03:12:09;;;;;;;22.38;9.30;;;4.90;99.90;;;;;;5092868;28;20119;-43
2021/12/12 03:14:36;;;;;;;23.35;9.45;;;4.90;99.90;;;;;;5092936;28;20036;-42
2021/12/12 03:17:08;;;;;;;19.50;9.13;;;4.90;99.90;;;;;;5092445;28;20017;-45
2021/12/12 03:19:35;;;;;;;15.80;8.60;;;4.90;99.90;;;;;;5083991;28;20055;-43
2021/12/12 03:22:01;;;;;;;25.45;10.52;;;4.90;99.90;;;;;;5072643;28;20024;-43
2021/12/12 03:24:27;;;;;;;18.42;9.10;;;5.00;99.90;;;;;;5074606;28;20059;-44
2021/12/12 03:26:59;;;;;;;19.85;9.07;;;5.00;99.90;;;;;;5076721;28;20020;-43
2021/12/12 03:29:26;;;;;;;17.90;9.23;;;5.00;99.90;;;;;;5082683;28;20383;-44
2021/12/12 03:31:57;;;;;;;24.13;9.60;;;4.90;99.90;;;;;;5096819;28;20519;-43
2021/12/12 03:34:27;;;;;;;23.60;8.85;;;5.00;99.90;;;;;;5096824;28;20047;-44
2021/12/12 03:36:53;;;;;;;22.45;8.93;;;5.00;99.90;;;;;;5084871;28;20491;-43
2021/12/12 03:39:24;;;;;;;21.05;8.73;;;5.00;99.90;;;;;;5076322;28;20020;-42
2021/12/12 03:41:53;;;;;;;23.02;9.25;;;5.00;99.90;;;;;;5076190;28;20093;-44
2021/12/12 03:44:22;;;;;;;21.30;8.68;;;5.10;99.90;;;;;;5075723;28;20070;-44
2021/12/12 03:46:52;;;;;;;25.33;8.27;;;5.10;99.90;;;;;;5064130;28;20450;-44
2021/12/12 03:49:18;;;;;;;23.35;8.77;;;5.10;99.90;;;;;;5076121;28;20082;-43
2021/12/12 03:51:45;;;;;;;19.08;8.43;;;5.10;99.90;;;;;;5075670;28;20021;-46
2021/12/12 03:54:11;;;;;;;13.50;7.90;;;5.10;99.90;;;;;;5076315;28;20023;-43
2021/12/12 03:56:41;;;;;;;20.92;8.63;;;5.10;99.90;;;;;;5075761;28;20049;-43
2021/12/12 03:59:07;;;;;;;14.82;7.63;;;5.10;99.90;;;;;;5075654;28;20024;-44
2021/12/12 04:01:40;;;;;;;20.75;8.52;;;5.10;99.90;;;;;;5076052;28;20025;-43
2021/12/12 04:04:17;;;;;;;15.85;7.75;;;5.10;99.90;;;;;;5076058;28;20047;-44
2021/12/12 04:06:44;;;;;;;16.27;8.10;;;5.10;99.90;;;;;;5075422;28;20568;-43
2021/12/12 04:09:12;;;;;;;24.83;8.80;;;5.10;99.90;;;;;;5075677;28;20504;-43
2021/12/12 04:11:40;;;;;;;24.60;8.57;;;5.10;99.90;;;;;;5075565;28;20493;-44
2021/12/12 04:14:07;;;;;;;19.42;7.80;;;5.20;99.90;;;;;;5075704;28;20104;-43
2021/12/12 04:16:36;;;;;;;14.20;7.43;;;5.10;99.90;;;;;;5095780;28;20016;-44
2021/12/12 04:19:03;;;;;;;12.95;7.13;;;5.20;99.90;;;;;;5095388;28;20031;-44
2021/12/12 04:21:29;;;;;;;11.43;7.60;;;5.20;99.90;;;;;;5095900;28;20106;-44
2021/12/12 04:23:55;;;;;;;14.35;7.72;;;5.20;99.90;;;;;;5095954;28;20567;-44
2021/12/12 04:26:25;;;;;;;23.80;8.20;;;5.20;99.90;;;;;;5077291;28;20025;-43
2021/12/12 04:29:01;;;;;;;12.43;6.88;;;5.20;99.90;;;;;;5075516;28;20404;-45
2021/12/12 04:31:27;;;;;;;16.50;7.20;;;5.20;99.90;;;;;;5075085;28;20024;-44
2021/12/12 04:33:53;;;;;;;13.35;7.75;;;5.20;99.90;;;;;;5074385;28;20017;-43
2021/12/12 04:36:28;;;;;;;22.63;7.22;;;5.30;99.90;;;;;;5089809;28;20410;-44
2021/12/12 04:39:18;;;;;;;17.13;7.40;;;5.30;99.90;;;;;;5094931;28;20028;-43
2021/12/12 04:41:46;;;;;;;20.88;7.82;;;5.30;99.90;;;;;;5094320;28;20107;-43
2021/12/12 04:44:12;;;;;;;18.25;7.78;;;5.30;99.90;;;;;;5094638;28;20038;-43
2021/12/12 04:49:56;;;;;;;15.60;7.80;;;5.30;99.90;;;;;;5074609;28;20070;-43
2021/12/12 04:53:08;;;;;;;13.23;7.05;;;5.30;99.90;;;;;;5074413;28;20482;-44
2021/12/12 04:56:07;;;;;;;13.70;7.38;;;5.30;99.90;;;;;;4992182;28;20081;-43
2021/12/12 04:58:45;;;;;;;14.05;7.20;;;5.40;99.90;;;;;;4992244;28;20045;-42
2021/12/12 05:01:24;;;;;;;12.90;7.30;;;5.40;99.90;;;;;;5059424;28;20063;-43
2021/12/12 05:03:56;;;;;;;14.55;6.50;;;5.40;99.90;;;;;;5074105;28;20517;-43
2021/12/12 05:06:33;;;;;;;16.15;6.90;;;5.40;99.90;;;;;;5075045;28;20021;-44
2021/12/12 05:09:07;;;;;;;11.95;6.80;;;5.40;99.90;;;;;;5073293;28;20037;-42
2021/12/12 05:11:54;;;;;;;12.80;6.03;;;5.40;99.90;;;;;;5073984;28;20777;-44
2021/12/12 05:14:23;;;;;;;13.85;6.80;;;5.40;99.90;;;;;;5075093;28;20040;-43
2021/12/12 05:17:03;;;;;;;8.93;5.35;;;5.40;99.90;;;;;;5093222;28;20109;-43
2021/12/12 05:19:30;;;;;;;14.80;6.80;;;5.50;99.90;;;;;;5093994;28;20077;-44
2021/12/12 05:22:04;;;;;;;13.90;5.97;;;5.40;99.90;;;;;;5093493;28;20387;-43
2021/12/12 05:24:31;;;;;;;12.75;5.43;;;5.50;99.90;;;;;;5091229;28;20035;-43
2021/12/12 05:27:02;;;;;;;10.80;6.30;;;5.50;99.90;;;;;;5073703;28;20398;-44
2021/12/12 05:29:45;;;;;;;11.48;5.25;;;5.50;99.90;;;;;;5073099;28;20028;-43
2021/12/12 05:32:13;;;;;;;11.27;5.38;;;5.50;99.90;;;;;;5073619;28;20105;-43
2021/12/12 05:34:41;;;;;;;10.07;5.07;;;5.50;99.90;;;;;;5079283;28;20036;-42
2021/12/12 05:37:10;;;;;;;9.63;5.78;;;5.50;99.90;;;;;;5091568;28;20081;-45
2021/12/12 05:39:37;;;;;;;7.78;4.78;;;5.60;99.90;;;;;;5093512;28;20634;-42
2021/12/12 05:42:04;;;;;;;10.63;5.65;;;5.60;99.90;;;;;;5093703;28;20052;-43
2021/12/12 05:44:31;;;;;;;14.05;6.20;;;5.60;99.90;;;;;;5087989;28;20613;-43
2021/12/12 05:46:59;;;;;;;11.35;5.57;;;5.60;99.90;;;;;;5072570;28;20163;-43
2021/12/12 05:49:25;;;;;;;11.23;4.65;;;5.60;99.90;;;;;;5073143;28;20043;-43
2021/12/12 05:51:51;;;;;;;8.77;5.10;;;5.60;99.90;;;;;;5072696;28;20025;-44
2021/12/12 05:54:17;;;;;;;12.02;4.78;;;5.60;99.90;;;;;;5074776;28;20507;-43
2021/12/12 05:56:43;;;;;;;13.68;5.97;;;5.70;99.90;;;;;;5093123;28;20140;-44
2021/12/12 05:59:10;;;;;;;8.27;5.60;;;5.70;99.90;;;;;;5092883;28;20028;-44
2021/12/12 06:01:37;;;;;;;7.17;4.70;;;5.70;99.90;;;;;;5093172;28;20028;-43
2021/12/12 06:04:03;;;;;;;8.55;4.25;;;5.70;99.90;;;;;;5092587;28;20110;-44
2021/12/12 06:06:36;;;;;;;11.10;4.68;;;5.70;99.90;;;;;;5091455;28;20016;-43
2021/12/12 06:09:05;;;;;;;11.35;4.72;;;5.80;99.90;;;;;;5093129;28;20036;-42
2021/12/12 06:11:33;;;;;;;9.02;4.90;;;5.80;99.90;;;;;;5092411;28;20020;-42
2021/12/12 06:14:01;;;;;;;12.43;5.80;;;5.80;99.90;;;;;;5091239;28;20031;-44
2021/12/12 06:16:30;;;;;;;8.93;4.65;;;5.80;99.90;;;;;;5072441;28;20091;-43
2021/12/12 06:19:06;;;;;;;11.52;5.07;;;5.80;99.90;;;;;;5091633;28;20455;-43
2021/12/12 06:21:32;;;;;;;7.05;4.03;;;5.80;99.90;;;;;;5092635;28;20039;-43
2021/12/12 06:23:59;;;;;;;6.72;3.97;;;5.90;99.90;;;;;;5092002;28;20031;-42
2021/12/12 06:26:25;;;;;;;7.55;4.28;;;5.90;99.90;;;;;;5091952;28;20050;-43
2021/12/12 06:28:51;;;;;;;7.20;4.00;;;5.90;99.90;;;;;;5092891;28;20036;-45
2021/12/12 06:31:18;;;;;;;6.53;3.45;;;5.90;99.90;;;;;;5092719;28;20020;-43
2021/12/12 06:33:44;;;;;;;5.82;3.58;;;5.90;99.90;;;;;;5090353;28;20038;-42
2021/12/12 06:36:12;;;;;;;7.22;3.85;;;6.00;99.90;;;;;;5072329;28;20511;-42
2021/12/12 06:38:41;;;;;;;5.65;3.92;;;6.00;99.90;;;;;;5072319;28;20028;-43
2021/12/12 06:41:08;;;;;;;7.85;4.60;;;6.00;99.90;;;;;;5072000;28;20059;-42
2021/12/12 06:43:35;;;;;;;8.18;4.50;;;6.00;99.90;;;;;;5072161;28;20024;-42
2021/12/12 06:46:04;;;;;;;8.38;4.40;;;6.10;99.90;;;;;;5075049;28;20479;-42
2021/12/12 06:48:29;;;;;;;8.13;4.10;;;6.10;99.90;;;;;;5071647;28;20123;-43
2021/12/12 06:50:56;;;;;;;5.97;3.20;;;6.10;99.90;;;;;;5072379;28;20104;-43
2021/12/12 06:53:26;;;;;;;5.85;3.72;;;6.10;99.90;;;;;;5071612;28;20109;-43
2021/12/12 06:55:52;;;;;;;6.72;3.20;;;6.10;99.90;;;;;;5089804;28;20056;-43
2021/12/12 06:58:20;;;;;;;7.82;4.20;;;6.20;99.90;;;;;;5091798;28;20077;-41
2021/12/12 07:00:55;;;;;;;4.82;3.13;;;6.10;99.90;;;;;;5092014;28;20092;-43
2021/12/12 07:03:21;;;;;;;4.57;3.10;;;6.20;99.90;;;;;;5091730;28;20779;-42
2021/12/12 07:05:48;;;;;;;5.85;3.58;;;6.20;99.90;;;;;;5091363;28;20471;-43
2021/12/12 07:08:17;;;;;;;5.25;3.10;;;6.20;99.90;;;;;;5091742;28;20490;-42
2021/12/12 07:10:43;;;;;;;9.13;3.53;;;6.30;99.90;;;;;;5092273;28;20059;-43
2021/12/12 07:13:09;;;;;;;5.50;3.35;;;6.30;99.90;;;;;;5092396;28;20027;-42
2021/12/12 07:15:46;;;;;;;4.50;2.60;;;6.30;99.90;;;;;;5080875;28;20052;-42
2021/12/12 07:18:15;;;;;;;7.47;3.33;;;6.30;99.90;;;;;;5111998;28;20035;-42
2021/12/12 07:20:43;;;;;;;5.05;3.15;;;6.30;99.90;;;;;;5106898;28;20035;-42
2021/12/12 07:23:11;;;;;;;6.40;4.00;;;6.30;99.90;;;;;;5079511;28;20028;-42
2021/12/12 07:25:39;;;;;;;8.07;4.30;;;6.30;99.90;;;;;;5088669;28;20067;-41
2021/12/12 07:28:06;;;;;;;5.53;3.10;;;6.30;99.90;;;;;;5073072;28;20471;-41
2021/12/12 07:30:33;;;;;;;8.43;3.60;;;6.30;99.90;;;;;;5099520;28;20164;-40
2021/12/12 07:32:59;;;;;;;5.85;3.55;;;6.30;99.90;;;;;;5112560;28;20354;-40
2021/12/12 07:35:25;;;;;;;5.13;3.13;;;6.40;99.90;;;;;;5096578;28;20027;-40
2021/12/12 07:37:52;;;;;;;4.45;3.15;;;6.40;99.90;;;;;;5091618;28;20114;-42
2021/12/12 07:40:19;;;;;;;5.60;3.30;;;6.40;99.90;;;;;;5090904;28;20067;-40
2021/12/12 07:42:47;;;;;;;6.03;2.90;;;6.40;99.90;;;;;;5091670;28;20024;-41
2021/12/12 07:45:15;;;;;;;6.18;3.25;;;6.50;99.90;;;;;;5092026;28;20012;-42
2021/12/12 07:47:41;;;;;;;8.45;4.07;;;6.50;99.90;;;;;;5090351;28;20023;-40
2021/12/12 07:50:09;;;;;;;7.57;4.05;;;6.50;99.90;;;;;;5090575;28;20105;-41
2021/12/12 07:52:35;;;;;;;7.25;4.13;;;6.50;99.90;;;;;;5080139;28;20032;-40
2021/12/12 07:55:02;;;;;;;5.85;3.17;;;6.60;99.90;;;;;;5108601;28;20016;-40
2021/12/12 07:57:29;;;;;;;8.20;3.90;;;6.50;99.90;;;;;;5105516;28;20051;-41
2021/12/12 07:59:55;;;;;;;7.68;4.03;;;6.60;99.90;;;;;;5091475;28;20115;-42
2021/12/12 08:02:22;;;;;;;6.50;3.95;;;6.60;99.90;;;;;;5091643;28;20459;-42
2021/12/12 08:04:49;;;;;;;8.18;4.70;;;6.60;99.90;;;;;;5091378;28;20027;-41
2021/12/12 08:07:17;;;;;;;5.63;3.72;;;6.60;99.90;;;;;;5091813;28;20024;-41
2021/12/12 08:09:44;;;;;;;7.15;3.25;;;6.60;99.90;;;;;;5097196;28;20051;-40
2021/12/12 08:12:19;;;;;;;7.55;3.80;;;6.70;99.90;;;;;;5114823;28;20031;-41
2021/12/12 08:14:49;;;;;;;6.28;3.35;;;6.70;99.90;;;;;;5115731;28;20028;-42
2021/12/12 08:17:16;;;;;;;5.28;2.92;;;6.70;99.90;;;;;;5115728;28;20072;-42
2021/12/12 08:19:42;;;;;;;6.88;3.85;;;6.70;99.90;;;;;;5115044;28;20035;-41
2021/12/12 08:22:10;;;;;;;5.95;3.95;;;6.80;99.90;;;;;;5103509;28;20024;-41
2021/12/12 08:24:37;;;;;;;8.13;3.78;;;6.80;99.90;;;;;;5094917;28;20078;-40
2021/12/12 08:27:05;;;;;;;5.93;3.33;;;6.80;99.90;;;;;;5076545;28;20372;-42
2021/12/12 08:29:32;;;;;;;7.07;3.85;;;6.80;99.90;;;;;;5094779;28;20028;-41
2021/12/12 08:31:58;;;;;;;6.35;3.30;;;6.80;99.90;;;;;;5085038;28;20024;-40
2021/12/12 08:34:26;;;;;;;5.90;3.53;;;6.80;99.90;;;;;;5074577;28;20025;-41
2021/12/12 08:36:55;;;;;;;7.28;3.92;;;6.80;99.90;;;;;;5074823;28;20031;-41
2021/12/12 08:39:21;;;;;;;6.93;3.70;;;6.80;99.90;;;;;;5073932;28;20020;-40
2021/12/12 08:41:50;;;;;;;5.43;3.60;;;6.80;99.90;;;;;;5079603;28;20022;-42
2021/12/12 08:44:18;;;;;;;10.25;4.45;;;6.80;99.90;;;;;;5094578;28;20093;-41
2021/12/12 08:46:47;;;;;;;8.32;4.13;;;6.90;99.90;;;;;;5094139;28;20805;-41
2021/12/12 08:49:15;;;;;;;8.85;4.05;;;6.90;99.90;;;;;;5094561;28;20059;-44
2021/12/12 08:51:46;;;;;;;;;;;6.90;99.90;;;;;;5086575;28;20024;-41
2021/12/12 08:54:22;;;;;;;7.30;3.33;;;7.00;99.90;;;;;;5073423;28;20489;-43
2021/12/12 08:56:54;;;;;;;7.60;4.45;;;6.90;99.90;;;;;;5073900;28;20059;-40
2021/12/12 08:59:23;;;;;;;7.65;4.10;;;7.00;99.90;;;;;;5075507;28;20425;-42
2021/12/12 09:01:53;;;;;;;9.45;4.97;;;7.00;99.90;;;;;;5103997;28;20024;-41
2021/12/12 09:04:19;;;;;;;6.25;3.58;;;7.10;99.90;;;;;;5114629;28;20080;-42
2021/12/12 09:07:03;;;;;;;9.25;4.30;;;7.10;99.90;;;;;;5096737;28;20089;-43
2021/12/12 09:09:37;;;;;;;7.60;3.58;;;7.10;99.90;;;;;;5094066;28;20043;-39
2021/12/12 09:12:05;;;;;;;8.23;4.35;;;7.10;99.90;;;;;;5094397;28;20032;-39
2021/12/12 09:14:38;;;;;;;13.23;4.60;;;7.20;99.90;;;;;;5092750;28;20025;-40
2021/12/12 09:17:09;;;;;;;8.75;4.35;;;7.20;99.90;;;;;;5095366;28;20933;-39
2021/12/12 09:19:43;;;;;;;12.07;4.72;;;7.20;99.90;;;;;;5114315;28;20030;-39
2021/12/12 09:22:47;;;;;;;7.55;4.18;;;7.20;99.90;;;;;;5112952;28;20150;-40
2021/12/12 09:25:34;;;;;;;6.28;3.28;;;7.30;99.90;;;;;;5062005;28;20028;-41
2021/12/12 09:28:22;;;;;;;8.80;4.53;;;7.30;99.90;;;;;;5114237;28;20054;-41
2021/12/12 09:30:48;;;;;;;7.93;4.80;;;7.30;99.90;;;;;;5114055;28;20427;-40
2021/12/12 09:33:48;;;;;;;7.93;4.18;;;7.30;99.90;;;;;;5113865;28;20034;-40
2021/12/12 09:36:20;;;;;;;7.93;4.75;;;7.40;99.90;;;;;;5067029;28;20483;-40
2021/12/12 09:38:52;;;;;;;7.40;4.05;;;7.40;99.90;;;;;;5093387;28;20451;-40
2021/12/12 09:41:51;;;;;;;8.85;4.80;;;7.40;99.90;;;;;;5093396;28;20031;-39
2021/12/12 09:44:42;;;;;;;5.78;3.90;;;7.50;99.90;;;;;;5092990;28;20028;-40
2021/12/12 09:47:32;;;;;;;12.57;5.20;;;7.50;99.90;;;;;;5079302;28;20512;-42
2021/12/12 09:53:27;;;;;;;11.52;4.32;;;7.60;99.90;;;;;;5073304;28;20040;-40
2021/12/12 09:56:00;;;;;;;7.30;3.60;;;7.60;99.90;;;;;;5074006;28;20561;-41
2021/12/12 09:58:54;;;;;;;11.15;5.10;;;7.60;99.90;;;;;;5091969;28;20558;-39
2021/12/12 10:01:24;;;;;;;8.35;4.90;;;7.70;99.90;;;;;;5092843;28;20098;-39
2021/12/12 10:04:02;;;;;;;9.40;4.57;;;7.70;99.90;;;;;;5092813;28;20024;-40
2021/12/12 10:06:43;;;;;;;10.50;4.80;;;7.70;99.90;;;;;;5089842;28;20070;-40
2021/12/12 10:09:16;;;;;;;9.60;4.78;;;7.70;99.90;;;;;;5072727;28;20115;-41
2021/12/12 10:11:50;;;;;;;10.18;4.65;;;7.80;99.90;;;;;;5072170;28;20021;-39
2021/12/12 10:14:34;;;;;;;10.70;5.28;;;7.80;99.90;;;;;;5072467;28;20075;-40
2021/12/12 10:17:11;;;;;;;11.10;5.35;;;7.80;99.90;;;;;;5083530;28;20070;-39
2021/12/12 10:19:46;;;;;;;11.73;5.72;;;7.90;99.90;;;;;;5092416;28;20811;-39
2021/12/12 10:22:25;;;;;;;11.40;5.78;;;7.90;99.90;;;;;;5092920;28;20047;-39
2021/12/12 10:25:12;;;;;;;9.95;4.47;;;7.90;99.90;;;;;;5092047;28;20024;-40
2021/12/12 10:28:01;;;;;;;13.10;5.95;;;8.00;99.90;;;;;;5077226;28;20043;-39
2021/12/12 10:31:08;;;;;;;11.05;5.20;;;8.00;99.90;;;;;;5072295;28;20024;-40
2021/12/12 10:33:40;;;;;;;10.88;5.13;;;8.10;99.90;;;;;;5056814;28;20063;-41
2021/12/12 10:36:23;;;;;;;10.60;5.15;;;8.10;99.90;;;;;;5087744;28;20040;-40
2021/12/12 10:39:04;;;;;;;9.55;4.70;;;8.20;99.90;;;;;;5092012;28;20020;-39
2021/12/12 10:41:43;;;;;;;9.77;5.07;;;8.20;99.90;;;;;;5082275;28;20106;-39
2021/12/12 10:44:22;;;;;;;12.68;5.53;;;8.20;99.90;;;;;;5080416;28;20024;-39
2021/12/12 10:46:57;;;;;;;10.15;5.20;;;8.30;99.90;;;;;;5079590;28;20028;-39
2021/12/12 10:49:58;;;;;;;9.30;4.80;;;8.30;99.90;;;;;;5074937;28;20173;-40
2021/12/12 10:52:38;;;;;;;11.98;5.93;;;8.30;99.90;;;;;;5082435;28;20487;-38
2021/12/12 10:55:13;;;;;;;9.10;5.43;;;8.40;99.90;;;;;;5096903;28;20049;-39
2021/12/12 10:57:40;;;;;;;10.80;5.85;;;8.40;99.90;;;;;;5111024;28;20047;-40
2021/12/12 11:00:11;;;;;;;9.40;4.65;;;8.40;99.90;;;;;;5071626;28;20032;-40
2021/12/12 11:02:52;;;;;;;10.63;4.72;;;8.50;99.90;;;;;;5091530;28;20064;-40
2021/12/12 11:05:25;;;;;;;9.88;4.82;;;8.50;99.90;;;;;;5091558;28;20024;-40
2021/12/12 11:08:04;;;;;;;7.60;4.25;;;8.60;99.90;;;;;;5091749;28;20532;-38
2021/12/12 11:10:35;;;;;;;8.25;4.25;;;8.70;99.90;;;;;;5079320;28;20079;-39
2021/12/12 11:13:38;;;;;;;9.80;4.78;;;8.70;99.90;;;;;;5112635;28;20027;-39
2021/12/12 11:16:17;;;;;;;8.55;4.32;;;8.70;99.90;;;;;;5033828;28;20044;-39
2021/12/12 11:18:53;;;;;;;8.32;4.72;;;8.70;99.90;;;;;;5071899;28;20472;-40
2021/12/12 11:21:33;;;;;;;9.88;4.97;;;8.70;99.90;;;;;;5071055;28;20032;-39
2021/12/12 11:24:07;;;;;;;6.53;3.45;;;8.80;99.90;;;;;;5071992;28;20107;-39
2021/12/12 11:26:40;;;;;;;8.68;4.32;;;8.80;99.90;;;;;;5071645;28;20103;-39
2021/12/12 11:29:11;;;;;;;11.32;4.07;;;8.90;99.90;;;;;;5072410;28;20090;-40
2021/12/12 11:31:51;;;;;;;9.10;4.72;;;8.90;99.90;;;;;;5090505;28;20039;-39
2021/12/12 11:34:18;;;;;;;10.02;4.85;;;8.90;99.90;;;;;;5088544;28;20024;-42
2021/12/12 11:37:03;;;;;;;9.50;4.80;;;8.90;99.90;;;;;;5090025;28;20078;-40
2021/12/12 11:39:43;;;;;;;6.30;3.70;;;9.00;99.90;;;;;;5088585;28;20386;-40
2021/12/12 11:42:23;;;;;;;7.38;4.10;;;9.00;99.90;;;;;;5091543;28;20036;-39
2021/12/12 11:45:08;;;;;;;8.45;3.83;;;9.00;99.90;;;;;;5093227;28;20056;-39
2021/12/12 11:47:58;;;;;;;9.38;3.95;;;9.00;99.90;;;;;;5095806;28;20065;-39
2021/12/12 11:51:03;;;;;;;8.75;4.10;;;9.10;99.90;;;;;;5095185;28;20356;-40
2021/12/12 11:53:52;;;;;;;8.13;3.53;;;9.10;99.90;;;;;;5094810;28;20063;-40
2021/12/12 11:56:50;;;;;;;9.32;4.45;;;9.20;99.90;;;;;;5095215;28;20060;-40
2021/12/12 11:59:38;;;;;;;8.87;4.00;;;9.20;99.90;;;;;;5094934;28;20334;-43
2021/12/12 12:02:33;;;;;;;7.45;3.55;;;9.20;99.90;;;;;;5095925;28;20473;-39
2021/12/12 12:05:37;;;;;;;8.65;3.80;;;9.20;99.90;;;;;;5078104;28;20019;-39
2021/12/12 12:08:25;;;;;;;12.15;4.63;;;9.30;99.90;;;;;;5084389;28;20031;-40
2021/12/12 12:11:08;;;;;;;;;;;9.30;99.90;;;;;;5095500;28;20111;-40
2021/12/12 12:14:01;;;;;;;8.95;4.28;;;9.30;99.90;;;;;;5075050;28;19904;-40
2021/12/12 12:16:35;;;;;;;8.02;4.20;;;9.30;99.90;;;;;;5074937;28;20048;-40
2021/12/12 12:19:22;;;;;;;6.07;3.50;;;9.30;99.90;;;;;;5074637;28;20115;-39
2021/12/12 12:22:28;;;;;;;7.97;3.85;;;9.30;99.90;;;;;;5075135;28;20032;-42
2021/12/12 12:25:18;;;;;;;7.53;3.75;;;9.30;99.90;;;;;;5087941;28;20032;-39
2021/12/12 12:27:58;;;;;;;7.15;4.25;;;9.30;99.90;;;;;;5095384;28;20055;-39
2021/12/12 12:31:02;;;;;;;7.60;4.60;;;9.30;99.90;;;;;;5094892;28;20043;-41
2021/12/12 12:34:01;;;;;;;9.63;4.18;;;9.30;99.90;;;;;;5094770;28;20122;-39
2021/12/12 12:36:54;;;;;;;8.93;3.65;;;9.40;99.90;;;;;;5094872;28;20548;-41
2021/12/12 12:39:31;;;;;;;8.10;3.97;;;9.40;99.90;;;;;;5094133;28;20471;-40
2021/12/12 12:42:47;;;;;;;7.55;3.40;;;9.40;99.90;;;;;;5094827;28;20024;-39
2021/12/12 12:45:55;;;;;;;9.75;4.53;;;9.40;99.90;;;;;;5094045;28;20051;-41
2021/12/12 12:49:02;;;;;;;12.70;4.47;;;9.50;99.90;;;;;;5094293;28;20028;-40
2021/12/12 12:52:10;;;;;;;8.27;4.57;;;9.40;99.90;;;;;;5094392;28;20528;-39
2021/12/12 12:55:13;;;;;;;9.60;4.60;;;9.50;99.90;;;;;;5094498;28;20084;-39
2021/12/12 12:57:41;;;;;;;8.55;4.25;;;9.50;99.90;;;;;;5078174;28;20108;-40
2021/12/12 13:00:20;;;;;;;8.25;3.90;;;9.50;99.90;;;;;;5080795;28;20034;-40
2021/12/12 13:03:07;;;;;;;9.93;4.43;;;9.60;99.90;;;;;;5075617;28;20017;-39
2021/12/12 13:05:56;;;;;;;9.97;3.87;;;9.60;99.90;;;;;;5094212;28;20387;-40
2021/12/12 13:08:49;;;;;;;8.35;4.13;;;9.60;99.90;;;;;;5093665;28;20032;-40
2021/12/12 13:11:22;;;;;;;12.35;4.10;;;9.60;99.90;;;;;;5079892;28;20031;-40
2021/12/12 13:13:59;;;;;;;8.75;4.97;;;9.70;99.90;;;;;;5083137;28;20115;-40
2021/12/12 13:16:41;;;;;;;8.13;4.05;;;9.70;99.90;;;;;;5093036;28;20031;-42
2021/12/12 13:19:20;;;;;;;8.52;3.80;;;9.70;99.90;;;;;;5094116;28;20020;-40
2021/12/12 13:22:15;;;;;;;9.65;4.13;;;9.80;99.90;;;;;;5092946;28;20166;-40
2021/12/12 13:24:57;;;;;;;12.73;4.32;;;9.80;99.90;;;;;;5052035;28;20075;-39
2021/12/12 13:28:01;;;;;;;8.73;4.30;;;9.90;99.90;;;;;;5079371;28;20055;-41
2021/12/12 13:30:42;;;;;;;10.02;4.75;;;9.90;99.90;;;;;;5087302;28;20087;-40
2021/12/12 13:33:18;;;;;;;8.93;3.90;;;9.90;99.90;;;;;;5089192;28;20028;-41
2021/12/12 13:36:12;;;;;;;6.13;3.95;;;9.90;99.90;;;;;;5087510;28;20498;-40
2021/12/12 13:38:45;;;;;;;8.18;3.55;;;10.00;99.90;;;;;;5083860;28;20032;-40
2021/12/12 13:41:22;;;;;;;8.98;4.25;;;10.00;99.90;;;;;;5074499;28;20021;-40
2021/12/12 13:43:56;;;;;;;7.97;3.70;;;10.00;99.90;;;;;;5073599;28;20107;-39
2021/12/12 13:46:30;;;;;;;7.25;4.00;;;10.10;99.90;;;;;;5075544;28;20028;-39